Time;durP1;ratioP1;P1;durP2;ratioP2;P2;SDS_P1;SDS_P2;PMS_P1;PMS_P2;Temp;Humidity;BMP_temperature;BMP_pressure;BME280_temperature;BME280_humidity;BME280_pressure;Samples;Min_cycle;Max_cycle;Signal;HPM_P1;HPM_P2
2020/12/12 00:02:02;;;;;;;27.98;18.48;;;4.20;91.40;;;;;;5039121;28;20261;-85
2020/12/12 00:04:29;;;;;;;26.55;18.40;;;4.20;91.00;;;;;;5051241;28;20041;-86
2020/12/12 00:07:04;;;;;;;29.27;17.40;;;4.10;91.30;;;;;;5068860;28;20499;-85
2020/12/12 00:09:30;;;;;;;26.98;18.42;;;4.20;91.70;;;;;;5048482;28;20037;-85
2020/12/12 00:12:16;;;;;;;27.92;17.42;;;4.20;91.40;;;;;;5039023;28;20061;-86
2020/12/12 00:15:05;;;;;;;25.33;17.92;;;4.20;91.20;;;;;;5047173;28;20048;-85
2020/12/12 00:17:31;;;;;;;25.90;16.35;;;4.20;91.10;;;;;;5052449;28;20041;-86
2020/12/12 00:19:57;;;;;;;27.42;17.30;;;4.10;91.00;;;;;;5050003;28;20102;-85
2020/12/12 00:22:23;;;;;;;25.13;17.23;;;4.20;91.10;;;;;;5046563;28;20076;-86
2020/12/12 00:24:48;;;;;;;27.08;17.02;;;4.10;91.50;;;;;;5049421;28;20480;-85
2020/12/12 00:27:34;;;;;;;23.38;16.80;;;4.10;91.30;;;;;;5035719;28;20102;-86
2020/12/12 00:30:20;;;;;;;25.27;16.30;;;4.20;91.60;;;;;;5044654;28;20480;-85
2020/12/12 00:32:46;;;;;;;27.65;18.13;;;4.20;91.60;;;;;;5036253;28;20099;-85
2020/12/12 00:35:32;;;;;;;25.58;16.95;;;4.20;91.20;;;;;;5046970;28;20048;-85
2020/12/12 00:38:17;;;;;;;27.35;18.20;;;4.20;91.50;;;;;;5055294;28;20500;-85
2020/12/12 00:40:43;;;;;;;28.13;16.23;;;4.20;91.50;;;;;;5058588;28;20041;-85
2020/12/12 00:43:09;;;;;;;28.08;16.42;;;4.20;91.50;;;;;;5052463;28;20046;-85
2020/12/12 00:45:35;;;;;;;23.73;16.55;;;4.20;91.50;;;;;;5058223;28;20102;-86
2020/12/12 00:48:03;;;;;;;27.80;17.27;;;4.10;90.90;;;;;;5053068;28;20044;-87
2020/12/12 00:50:49;;;;;;;22.90;16.58;;;4.10;91.20;;;;;;5048175;28;20388;-86
2020/12/12 00:53:15;;;;;;;26.13;17.85;;;4.20;91.30;;;;;;5067491;28;20048;-86
2020/12/12 00:56:01;;;;;;;26.50;17.65;;;4.10;91.20;;;;;;5069624;28;20080;-86
2020/12/12 00:58:27;;;;;;;27.30;17.45;;;4.10;91.50;;;;;;5051205;28;20491;-87
2020/12/12 01:00:53;;;;;;;23.55;16.88;;;4.10;91.30;;;;;;5047585;28;20044;-86
2020/12/12 01:03:40;;;;;;;25.85;16.58;;;4.10;91.60;;;;;;5020338;28;20491;-86
2020/12/12 01:06:16;;;;;;;27.20;18.48;;;4.10;91.60;;;;;;5045048;28;20045;-86
2020/12/12 01:08:43;;;;;;;27.15;16.88;;;4.10;91.30;;;;;;5047651;28;20140;-86
2020/12/12 01:11:10;;;;;;;23.30;15.75;;;4.10;91.40;;;;;;5049312;28;20662;-86
2020/12/12 01:13:56;;;;;;;24.15;16.20;;;4.00;92.10;;;;;;5035406;28;20045;-86
2020/12/12 01:16:42;;;;;;;24.73;17.88;;;4.00;91.70;;;;;;5044951;28;20071;-86
2020/12/12 01:19:08;;;;;;;28.67;15.45;;;4.10;91.40;;;;;;5029223;28;20517;-87
2020/12/12 01:21:54;;;;;;;25.48;16.50;;;4.00;91.90;;;;;;5032150;28;20041;-87
2020/12/12 01:24:20;;;;;;;26.77;17.17;;;4.00;91.40;;;;;;5050853;28;20049;-85
2020/12/12 01:27:06;;;;;;;28.65;17.10;;;4.00;91.40;;;;;;5048192;28;20045;-85
2020/12/12 01:29:32;;;;;;;24.98;16.98;;;4.00;91.60;;;;;;5053164;28;20048;-86
2020/12/12 01:31:57;;;;;;;24.95;16.27;;;4.00;92.00;;;;;;5048673;28;20120;-85
2020/12/12 01:34:43;;;;;;;24.15;15.60;;;4.00;91.70;;;;;;5032895;28;20041;-85
2020/12/12 01:37:09;;;;;;;27.70;16.98;;;3.90;91.70;;;;;;5048553;28;20530;-85
2020/12/12 01:39:35;;;;;;;28.65;16.15;;;3.90;92.10;;;;;;5047897;28;20080;-87
2020/12/12 01:42:20;;;;;;;24.33;16.23;;;3.90;91.90;;;;;;5035587;28;20048;-87
2020/12/12 01:44:46;;;;;;;24.88;15.48;;;3.90;91.90;;;;;;5068427;28;20479;-87
2020/12/12 01:47:12;;;;;;;23.20;15.82;;;3.90;92.00;;;;;;5063054;28;20064;-88
2020/12/12 01:49:38;;;;;;;25.05;15.80;;;3.90;91.90;;;;;;5068378;28;20045;-86
2020/12/12 01:52:26;;;;;;;26.35;15.18;;;3.90;92.20;;;;;;5044445;28;20123;-86
2020/12/12 01:54:52;;;;;;;24.52;16.02;;;3.80;92.30;;;;;;5053845;28;20045;-86
2020/12/12 01:57:20;;;;;;;25.55;16.40;;;3.80;92.40;;;;;;5061456;28;20036;-87
2020/12/12 01:59:50;;;;;;;23.02;15.20;;;3.80;92.50;;;;;;5051056;28;20106;-87
2020/12/12 02:02:18;;;;;;;24.98;16.35;;;3.90;92.30;;;;;;5066023;28;20064;-86
2020/12/12 02:04:54;;;;;;;23.15;14.85;;;3.90;92.30;;;;;;5064083;28;20039;-87
2020/12/12 02:07:22;;;;;;;24.85;14.88;;;3.80;92.30;;;;;;5065516;28;20072;-87
2020/12/12 02:09:48;;;;;;;27.60;16.52;;;3.80;92.70;;;;;;5050654;28;20473;-86
2020/12/12 02:12:15;;;;;;;22.73;15.73;;;3.80;92.60;;;;;;5044024;28;20128;-87
2020/12/12 02:14:42;;;;;;;24.30;15.13;;;3.80;92.60;;;;;;5047569;28;20041;-87
2020/12/12 02:17:10;;;;;;;24.85;15.35;;;3.70;92.70;;;;;;5031901;28;20494;-87
2020/12/12 02:19:56;;;;;;;23.48;15.57;;;3.70;92.60;;;;;;5026003;28;20135;-86
2020/12/12 02:22:41;;;;;;;23.42;14.65;;;3.70;93.10;;;;;;5006939;28;20056;-86
2020/12/12 02:25:07;;;;;;;23.20;14.52;;;3.60;92.90;;;;;;5035920;28;20048;-86
2020/12/12 02:27:33;;;;;;;23.05;14.52;;;3.60;92.80;;;;;;5049950;28;20508;-88
2020/12/12 02:29:59;;;;;;;26.23;16.27;;;3.60;93.40;;;;;;5051696;28;20538;-87
2020/12/12 02:32:24;;;;;;;24.25;14.80;;;3.60;93.40;;;;;;5050173;28;20048;-86
2020/12/12 02:35:10;;;;;;;23.95;15.02;;;3.50;93.00;;;;;;5051928;28;20083;-86
2020/12/12 02:37:36;;;;;;;23.20;14.95;;;3.60;93.40;;;;;;5051906;28;20041;-87
2020/12/12 02:40:04;;;;;;;23.70;15.48;;;3.50;93.20;;;;;;5051857;28;20114;-86
2020/12/12 02:42:49;;;;;;;21.67;14.60;;;3.50;93.20;;;;;;5037371;28;20471;-86
2020/12/12 02:45:18;;;;;;;23.15;14.43;;;3.50;93.30;;;;;;5051663;28;20048;-87
2020/12/12 02:47:45;;;;;;;27.48;15.95;;;3.40;93.10;;;;;;5047260;28;20049;-87
2020/12/12 02:50:12;;;;;;;24.98;14.70;;;3.40;93.20;;;;;;5047568;28;20072;-88
2020/12/12 02:52:40;;;;;;;27.90;15.70;;;3.40;93.40;;;;;;5058807;28;20069;-87
2020/12/12 02:55:26;;;;;;;25.08;14.70;;;3.50;93.20;;;;;;5039872;28;20072;-87
2020/12/12 02:58:12;;;;;;;24.00;14.77;;;3.50;93.00;;;;;;5037791;28;20057;-87
2020/12/12 03:00:38;;;;;;;21.45;14.73;;;3.60;93.40;;;;;;5050829;28;20103;-87
2020/12/12 03:03:03;;;;;;;25.58;14.85;;;3.50;93.30;;;;;;5044130;28;20044;-86
2020/12/12 03:05:29;;;;;;;25.75;15.95;;;3.60;93.60;;;;;;5036573;28;20048;-87
2020/12/12 03:07:55;;;;;;;26.30;15.68;;;3.60;93.40;;;;;;5041162;28;20037;-86
2020/12/12 03:10:21;;;;;;;22.10;15.57;;;3.60;93.30;;;;;;5024758;28;20041;-87
2020/12/12 03:12:46;;;;;;;25.02;15.60;;;3.60;93.30;;;;;;5033340;28;20106;-87
2020/12/12 03:15:12;;;;;;;27.25;15.80;;;3.60;93.30;;;;;;5047206;28;20128;-87
2020/12/12 03:17:38;;;;;;;29.08;16.20;;;3.60;93.20;;;;;;5063482;28;20552;-88
2020/12/12 03:20:06;;;;;;;27.23;15.35;;;3.50;93.20;;;;;;5034813;28;20051;-87
2020/12/12 03:22:33;;;;;;;23.77;15.57;;;3.50;93.20;;;;;;5052062;28;20427;-87
2020/12/12 03:24:59;;;;;;;26.33;16.08;;;3.60;93.50;;;;;;5050123;28;20587;-86
2020/12/12 03:27:25;;;;;;;23.45;15.80;;;3.50;93.00;;;;;;5034576;28;20481;-86
2020/12/12 03:30:11;;;;;;;23.63;14.98;;;3.50;93.20;;;;;;5045627;28;20056;-87
2020/12/12 03:32:36;;;;;;;28.15;15.32;;;3.60;93.30;;;;;;5049092;28;20440;-88
2020/12/12 03:35:03;;;;;;;25.42;16.45;;;3.50;93.30;;;;;;5036919;28;20048;-86
2020/12/12 03:37:28;;;;;;;26.73;17.05;;;3.40;93.20;;;;;;5050397;28;20041;-86
2020/12/12 03:39:54;;;;;;;25.73;16.30;;;3.50;93.10;;;;;;5042790;28;20043;-87
2020/12/12 03:42:20;;;;;;;24.98;16.58;;;3.40;93.30;;;;;;5047719;28;20041;-86
2020/12/12 03:44:46;;;;;;;22.30;15.02;;;3.40;93.10;;;;;;5049983;28;20049;-86
2020/12/12 03:47:11;;;;;;;23.55;15.60;;;3.50;93.40;;;;;;5034073;28;20048;-86
2020/12/12 03:49:57;;;;;;;25.10;16.05;;;3.50;93.30;;;;;;5050287;28;20674;-86
2020/12/12 03:52:23;;;;;;;26.42;17.10;;;3.40;93.20;;;;;;5050190;28;20124;-87
2020/12/12 03:54:49;;;;;;;22.80;15.88;;;3.50;93.20;;;;;;5033220;28;20053;-87
2020/12/12 03:57:14;;;;;;;29.55;16.98;;;3.40;93.20;;;;;;5066999;28;20464;-86
2020/12/12 03:59:40;;;;;;;27.27;17.08;;;3.40;93.20;;;;;;5033240;28;20041;-86
2020/12/12 04:02:06;;;;;;;26.13;16.55;;;3.40;93.20;;;;;;5051002;28;20107;-86
2020/12/12 04:04:52;;;;;;;25.52;16.35;;;3.40;93.20;;;;;;5022251;28;20057;-87
2020/12/12 04:07:17;;;;;;;27.98;17.10;;;3.40;93.40;;;;;;5066546;28;20087;-86
2020/12/12 04:09:43;;;;;;;25.33;16.50;;;3.40;93.30;;;;;;5041507;28;20041;-86
2020/12/12 04:12:09;;;;;;;22.85;15.88;;;3.40;93.40;;;;;;5037009;28;20393;-86
2020/12/12 04:14:35;;;;;;;23.75;16.55;;;3.30;93.10;;;;;;5013525;28;20081;-86
2020/12/12 04:17:01;;;;;;;28.35;16.95;;;3.40;93.20;;;;;;5057943;28;20051;-86
2020/12/12 04:19:27;;;;;;;26.77;17.13;;;3.30;93.30;;;;;;5049822;28;20047;-86
2020/12/12 04:21:53;;;;;;;27.85;17.92;;;3.30;93.10;;;;;;5065675;28;20041;-86
2020/12/12 04:24:38;;;;;;;25.15;16.20;;;3.30;93.30;;;;;;5035055;28;20045;-86
2020/12/12 04:27:24;;;;;;;29.02;16.90;;;3.40;93.30;;;;;;5022543;28;20052;-87
2020/12/12 04:29:50;;;;;;;27.33;16.80;;;3.40;93.20;;;;;;5065538;28;20045;-86
2020/12/12 04:32:35;;;;;;;24.92;17.10;;;3.40;93.50;;;;;;5034956;28;20068;-87
2020/12/12 04:35:01;;;;;;;28.27;17.88;;;3.30;93.40;;;;;;5065829;28;20048;-87
2020/12/12 04:37:27;;;;;;;27.73;17.33;;;3.40;93.30;;;;;;5024534;28;20045;-86
2020/12/12 04:39:53;;;;;;;25.95;16.67;;;3.30;93.20;;;;;;5032953;28;20047;-87
2020/12/12 04:42:20;;;;;;;25.00;16.27;;;3.40;93.30;;;;;;5032410;28;20099;-86
2020/12/12 04:44:46;;;;;;;28.98;18.13;;;3.30;93.40;;;;;;5048515;28;20477;-86
2020/12/12 04:47:13;;;;;;;23.88;16.20;;;3.40;93.50;;;;;;5049299;28;20071;-87
2020/12/12 04:49:40;;;;;;;27.48;17.23;;;3.30;93.40;;;;;;5049203;28;20053;-86
2020/12/12 04:52:06;;;;;;;26.77;17.92;;;3.30;93.20;;;;;;5048632;28;20099;-86
2020/12/12 04:54:34;;;;;;;28.02;17.70;;;3.30;93.20;;;;;;5050368;28;20488;-86
2020/12/12 04:57:05;;;;;;;24.30;16.65;;;3.20;93.30;;;;;;5028342;28;20056;-87
2020/12/12 04:59:33;;;;;;;26.33;17.67;;;3.20;93.40;;;;;;5040301;28;20307;-87
2020/12/12 05:02:00;;;;;;;25.67;17.00;;;3.20;93.50;;;;;;5012527;28;20065;-86
2020/12/12 05:04:26;;;;;;;29.38;17.95;;;3.20;93.50;;;;;;5039463;28;20045;-86
2020/12/12 05:06:52;;;;;;;27.27;17.15;;;3.20;93.50;;;;;;5048291;28;20063;-85
2020/12/12 05:09:38;;;;;;;28.67;17.98;;;3.20;93.60;;;;;;5041538;28;20081;-86
2020/12/12 05:12:04;;;;;;;28.27;18.00;;;3.20;93.60;;;;;;5041462;28;20068;-87
2020/12/12 05:14:30;;;;;;;32.05;18.17;;;3.20;93.50;;;;;;5048930;28;20140;-86
2020/12/12 05:16:58;;;;;;;34.17;19.13;;;3.30;93.60;;;;;;5048029;28;20064;-86
2020/12/12 05:19:23;;;;;;;31.20;17.98;;;3.20;93.70;;;;;;5049599;28;20068;-86
2020/12/12 05:21:54;;;;;;;26.60;16.92;;;3.30;93.70;;;;;;5049366;28;20040;-86
2020/12/12 05:24:24;;;;;;;31.00;17.85;;;3.20;93.50;;;;;;5048734;28;20049;-86
2020/12/12 05:26:50;;;;;;;28.73;18.23;;;3.30;93.70;;;;;;5031291;28;20041;-86
2020/12/12 05:29:16;;;;;;;30.88;17.33;;;3.30;93.60;;;;;;5031631;28;20056;-86
2020/12/12 05:31:43;;;;;;;30.13;18.75;;;3.30;93.50;;;;;;5031627;28;20051;-86
2020/12/12 05:34:29;;;;;;;28.08;18.33;;;3.30;93.70;;;;;;5035105;28;20049;-87
2020/12/12 05:36:56;;;;;;;29.95;18.80;;;3.40;93.90;;;;;;5031232;28;20532;-86
2020/12/12 05:39:22;;;;;;;35.13;19.33;;;3.40;93.50;;;;;;5060628;28;20083;-87
2020/12/12 05:42:08;;;;;;;35.47;19.70;;;3.40;93.50;;;;;;5023235;28;20060;-86
2020/12/12 05:44:34;;;;;;;29.73;18.50;;;3.40;93.50;;;;;;5047981;28;20094;-86
2020/12/12 05:47:01;;;;;;;33.35;18.92;;;3.30;93.50;;;;;;5043839;28;20045;-87
2020/12/12 05:49:27;;;;;;;28.75;18.50;;;3.40;93.40;;;;;;5041383;28;20068;-87
2020/12/12 05:51:54;;;;;;;30.90;18.90;;;3.40;93.50;;;;;;5063651;28;20512;-86
2020/12/12 05:54:22;;;;;;;34.88;18.90;;;3.50;93.70;;;;;;5044964;28;20401;-87
2020/12/12 05:57:11;;;;;;;26.98;18.20;;;3.40;93.50;;;;;;5028362;28;20049;-85
2020/12/12 05:59:38;;;;;;;30.98;19.73;;;3.40;93.40;;;;;;5041887;28;20036;-87
2020/12/12 06:02:06;;;;;;;31.45;19.17;;;3.50;93.60;;;;;;5027144;28;20136;-87
2020/12/12 06:04:37;;;;;;;30.30;18.83;;;3.50;93.50;;;;;;5040639;28;20049;-87
2020/12/12 06:07:06;;;;;;;35.47;19.77;;;3.50;93.30;;;;;;5048585;28;20044;-86
2020/12/12 06:09:37;;;;;;;31.98;19.27;;;3.50;93.50;;;;;;5042243;28;20049;-87
2020/12/12 06:12:07;;;;;;;;;;;3.50;93.50;;;;;;5048701;28;20048;-87
2020/12/12 06:14:37;;;;;;;36.60;20.02;;;3.50;93.40;;;;;;5049470;28;19986;-87
2020/12/12 06:17:17;;;;;;;34.05;20.58;;;3.50;93.40;;;;;;5047414;28;20052;-87
2020/12/12 06:20:05;;;;;;;30.90;18.77;;;3.50;93.50;;;;;;5033302;28;20378;-88
2020/12/12 06:22:32;;;;;;;33.63;19.92;;;3.50;93.70;;;;;;5044387;28;20543;-86
2020/12/12 06:25:22;;;;;;;30.52;19.45;;;3.50;93.60;;;;;;5034802;28;20069;-88
2020/12/12 06:28:14;;;;;;;39.27;22.57;;;3.50;93.50;;;;;;5047216;28;20535;-87
2020/12/12 06:30:41;;;;;;;33.10;19.38;;;3.50;93.90;;;;;;5064433;28;20341;-87
2020/12/12 06:33:07;;;;;;;34.47;21.55;;;3.50;93.60;;;;;;5046696;28;20049;-87
2020/12/12 06:35:36;;;;;;;36.33;20.63;;;3.50;93.50;;;;;;5031540;28;20037;-86
2020/12/12 06:38:20;;;;;;;38.58;20.58;;;3.50;93.50;;;;;;5063331;28;20053;-86
2020/12/12 06:41:06;;;;;;;34.47;20.10;;;3.50;93.50;;;;;;5033609;28;20400;-87
2020/12/12 06:43:36;;;;;;;34.78;21.42;;;3.50;93.30;;;;;;5047887;28;20044;-86
2020/12/12 06:46:42;;;;;;;37.70;22.70;;;3.60;93.70;;;;;;5047795;28;20404;-87
2020/12/12 06:49:10;;;;;;;38.25;21.15;;;3.60;93.60;;;;;;5031060;28;20057;-87
2020/12/12 06:51:36;;;;;;;35.88;21.52;;;3.60;93.60;;;;;;5044435;28;20036;-86
2020/12/12 06:54:22;;;;;;;33.97;20.42;;;3.50;93.50;;;;;;5042297;28;20050;-87
2020/12/12 06:56:48;;;;;;;36.78;21.27;;;3.60;93.90;;;;;;5046261;28;20044;-86
2020/12/12 06:59:27;;;;;;;35.13;21.40;;;3.60;93.50;;;;;;5030512;28;20101;-87
2020/12/12 07:01:55;;;;;;;33.67;20.75;;;3.60;93.70;;;;;;5048054;28;20116;-88
2020/12/12 07:04:27;;;;;;;39.80;22.33;;;3.60;93.60;;;;;;5042547;28;20037;-87
2020/12/12 07:07:16;;;;;;;32.38;20.60;;;3.60;93.60;;;;;;5051237;28;20053;-86
2020/12/12 07:09:42;;;;;;;38.97;22.38;;;3.70;93.60;;;;;;5044810;28;20049;-87
2020/12/12 07:12:28;;;;;;;38.42;21.77;;;3.70;93.80;;;;;;5048140;28;20047;-88
2020/12/12 07:14:56;;;;;;;36.55;22.85;;;3.70;93.90;;;;;;5061350;28;20049;-88
2020/12/12 07:17:43;;;;;;;38.15;22.42;;;3.70;93.60;;;;;;5024139;28;20830;-88
2020/12/12 07:20:09;;;;;;;35.40;21.67;;;3.70;93.50;;;;;;5045274;28;20037;-87
2020/12/12 07:22:36;;;;;;;38.45;21.70;;;3.70;93.70;;;;;;5032579;28;20049;-87
2020/12/12 07:25:05;;;;;;;37.83;22.42;;;3.70;93.80;;;;;;5033766;28;20056;-86
2020/12/12 07:27:31;;;;;;;36.67;22.08;;;3.80;93.70;;;;;;5052127;28;20120;-86
2020/12/12 07:29:57;;;;;;;38.50;22.60;;;3.80;93.40;;;;;;5033301;28;20043;-87
2020/12/12 07:32:25;;;;;;;41.58;23.58;;;3.80;93.80;;;;;;5050927;28;20041;-86
2020/12/12 07:34:57;;;;;;;39.88;23.38;;;3.80;94.00;;;;;;5031599;28;20041;-86
2020/12/12 07:37:23;;;;;;;40.20;24.05;;;3.80;93.70;;;;;;5044063;28;20040;-87
2020/12/12 07:39:49;;;;;;;43.55;25.27;;;3.80;93.50;;;;;;5052887;28;20067;-87
2020/12/12 07:42:15;;;;;;;38.67;23.17;;;3.90;93.70;;;;;;5022928;28;20061;-88
2020/12/12 07:48:09;;;;;;;52.90;27.77;;;3.80;93.50;;;;;;5043447;28;20056;-87
2020/12/12 07:50:36;;;;;;;39.05;23.48;;;3.90;93.80;;;;;;5069525;28;20048;-87
2020/12/12 07:53:22;;;;;;;43.90;25.23;;;3.90;93.80;;;;;;5066817;28;20504;-87
2020/12/12 07:55:59;;;;;;;44.83;26.25;;;3.90;93.60;;;;;;5069301;28;20055;-87
2020/12/12 07:59:01;;;;;;;42.50;23.90;;;3.90;93.90;;;;;;5055860;28;20044;-86
2020/12/12 08:01:28;;;;;;;45.92;25.80;;;3.90;93.80;;;;;;5056450;28;20048;-87
2020/12/12 08:04:24;;;;;;;41.03;25.00;;;4.00;93.60;;;;;;5049428;28;20048;-88
2020/12/12 08:06:50;;;;;;;40.75;24.67;;;3.90;93.50;;;;;;5040545;28;20045;-86
2020/12/12 08:09:20;;;;;;;45.13;26.17;;;3.90;93.70;;;;;;5061211;28;20038;-87
2020/12/12 08:11:55;;;;;;;44.97;26.50;;;3.90;93.60;;;;;;5055003;28;20170;-87
2020/12/12 08:14:21;;;;;;;44.20;24.30;;;4.00;93.80;;;;;;5066613;28;20294;-88
2020/12/12 08:16:48;;;;;;;40.55;23.52;;;4.00;93.90;;;;;;5054689;28;20049;-87
2020/12/12 08:19:14;;;;;;;46.58;24.92;;;4.00;93.80;;;;;;5040598;28;20037;-87
2020/12/12 08:21:40;;;;;;;42.45;25.27;;;4.00;93.70;;;;;;5050111;28;20503;-87
2020/12/12 08:24:26;;;;;;;40.42;24.02;;;4.10;93.90;;;;;;5040247;28;20036;-87
2020/12/12 08:26:52;;;;;;;42.22;24.98;;;4.00;93.70;;;;;;5053258;28;20051;-86
2020/12/12 08:29:18;;;;;;;48.20;25.50;;;4.00;93.70;;;;;;5049190;28;20668;-86
2020/12/12 08:31:44;;;;;;;42.17;24.48;;;4.00;93.90;;;;;;5043783;28;20436;-87
2020/12/12 08:34:19;;;;;;;42.40;25.30;;;4.10;94.00;;;;;;5015365;28;20398;-86
2020/12/12 08:36:44;;;;;;;45.45;26.15;;;4.10;93.70;;;;;;5050373;28;20518;-86
2020/12/12 08:39:10;;;;;;;46.10;26.08;;;4.10;93.70;;;;;;5062277;28;20045;-86
2020/12/12 08:41:38;;;;;;;45.25;25.25;;;4.10;93.80;;;;;;5058696;28;20044;-87
2020/12/12 08:44:06;;;;;;;44.88;25.05;;;4.10;93.90;;;;;;5052527;28;20045;-86
2020/12/12 08:46:32;;;;;;;44.78;25.10;;;4.20;94.00;;;;;;5057512;28;20053;-87
2020/12/12 08:48:58;;;;;;;42.17;24.92;;;4.20;94.20;;;;;;5029893;28;20056;-86
2020/12/12 08:51:28;;;;;;;45.30;26.58;;;4.20;93.70;;;;;;5061318;28;20864;-87
2020/12/12 08:54:14;;;;;;;47.03;25.52;;;4.20;93.80;;;;;;5045156;28;20455;-87
2020/12/12 08:57:10;;;;;;;46.65;24.30;;;4.20;93.90;;;;;;5025588;28;20052;-87
2020/12/12 08:59:35;;;;;;;46.40;25.63;;;4.30;93.90;;;;;;5055392;28;20040;-86
2020/12/12 09:02:21;;;;;;;51.05;27.33;;;4.30;93.90;;;;;;5037470;28;20037;-85
2020/12/12 09:05:13;;;;;;;55.58;27.30;;;4.20;93.80;;;;;;5049418;28;20077;-86
2020/12/12 09:08:15;;;;;;;48.33;27.48;;;4.30;94.10;;;;;;5065620;28;20725;-84
2020/12/12 09:10:41;;;;;;;54.95;29.60;;;4.30;94.20;;;;;;5051228;28;20049;-84
2020/12/12 09:13:09;;;;;;;55.65;28.95;;;4.20;94.10;;;;;;5041342;28;20206;-85
2020/12/12 09:15:34;;;;;;;52.55;29.05;;;4.20;94.30;;;;;;5045227;28;20055;-85
2020/12/12 09:18:00;;;;;;;56.80;28.75;;;4.30;94.40;;;;;;5031550;28;20404;-84
2020/12/12 09:20:46;;;;;;;50.60;28.00;;;4.30;94.40;;;;;;5016994;28;20049;-84
2020/12/12 09:23:12;;;;;;;54.13;28.92;;;4.30;94.30;;;;;;5030651;28;20045;-84
2020/12/12 09:25:58;;;;;;;58.88;29.67;;;4.40;94.60;;;;;;5021272;28;20048;-83
2020/12/12 09:28:44;;;;;;;55.70;28.58;;;4.40;94.40;;;;;;5013931;28;20049;-83
2020/12/12 09:31:10;;;;;;;59.70;30.88;;;4.40;94.60;;;;;;5048733;28;20048;-86
2020/12/12 09:33:56;;;;;;;62.83;31.02;;;4.40;94.40;;;;;;5030063;28;20131;-86
2020/12/12 09:36:41;;;;;;;56.83;29.75;;;4.40;94.50;;;;;;5029618;28;20049;-82
2020/12/12 09:39:26;;;;;;;58.42;30.77;;;4.50;94.50;;;;;;5062812;28;20067;-88
2020/12/12 09:41:58;;;;;;;60.90;30.70;;;4.50;94.50;;;;;;5037536;28;20041;-86
2020/12/12 09:44:43;;;;;;;62.08;31.38;;;4.50;94.30;;;;;;5023370;28;20485;-85
2020/12/12 09:47:10;;;;;;;60.08;30.33;;;4.50;94.40;;;;;;5030307;28;20033;-86
2020/12/12 09:49:36;;;;;;;58.90;30.38;;;4.50;94.60;;;;;;5044450;28;20480;-86
2020/12/12 09:52:02;;;;;;;56.30;31.10;;;4.60;94.70;;;;;;5034244;28;20045;-86
2020/12/12 09:54:47;;;;;;;60.70;29.80;;;4.60;94.70;;;;;;5031643;28;20113;-86
2020/12/12 09:57:13;;;;;;;61.83;32.17;;;4.60;94.60;;;;;;5062101;28;20120;-85
2020/12/12 09:59:39;;;;;;;69.00;30.73;;;4.60;94.30;;;;;;5039455;28;20442;-86
2020/12/12 10:02:06;;;;;;;59.75;30.15;;;4.60;94.30;;;;;;5057364;28;20036;-85
2020/12/12 10:04:32;;;;;;;59.83;31.95;;;4.70;94.60;;;;;;5034857;28;20254;-86
2020/12/12 10:06:58;;;;;;;61.67;31.80;;;4.70;94.40;;;;;;5022218;28;20123;-86
2020/12/12 10:09:23;;;;;;;59.63;30.08;;;4.60;94.10;;;;;;5022819;28;20040;-86
2020/12/12 10:11:50;;;;;;;60.50;31.08;;;4.70;94.30;;;;;;5040068;28;20781;-86
2020/12/12 10:14:16;;;;;;;60.85;31.80;;;4.70;94.40;;;;;;5030771;28;20041;-86
2020/12/12 10:17:01;;;;;;;67.28;33.47;;;4.80;94.50;;;;;;5020782;28;20071;-85
2020/12/12 10:19:27;;;;;;;60.33;32.53;;;4.70;94.40;;;;;;5047050;28;20041;-87
2020/12/12 10:21:53;;;;;;;65.28;32.85;;;4.80;94.30;;;;;;5031803;28;20499;-88
2020/12/12 10:24:39;;;;;;;63.03;33.05;;;4.80;94.40;;;;;;5032123;28;20053;-87
2020/12/12 10:27:05;;;;;;;67.25;34.22;;;4.80;94.10;;;;;;5046246;28;20033;-89
2020/12/12 10:29:31;;;;;;;64.90;33.40;;;4.80;94.20;;;;;;5018283;28;20275;-88
2020/12/12 10:31:57;;;;;;;65.72;32.70;;;4.80;94.30;;;;;;5011233;28;20045;-88
2020/12/12 10:34:23;;;;;;;59.40;33.08;;;4.80;94.00;;;;;;5044009;28;20415;-91
2020/12/12 10:37:09;;;;;;;56.25;32.25;;;4.80;94.20;;;;;;5029743;28;20048;-87
2020/12/12 10:39:41;;;;;;;53.17;31.10;;;4.80;94.20;;;;;;5045746;28;20144;-87
2020/12/12 10:42:07;;;;;;;60.97;31.60;;;4.80;94.20;;;;;;5047120;28;20038;-85
2020/12/12 10:44:52;;;;;;;50.75;31.02;;;4.80;94.20;;;;;;5053357;28;20083;-85
2020/12/12 10:47:19;;;;;;;55.28;31.10;;;4.70;94.00;;;;;;5050825;28;20499;-85
2020/12/12 10:49:44;;;;;;;56.25;30.40;;;4.80;94.20;;;;;;5058483;28;20447;-85
2020/12/12 10:52:10;;;;;;;53.53;29.73;;;4.80;94.20;;;;;;5066317;28;20041;-88
2020/12/12 10:54:56;;;;;;;50.22;28.25;;;4.90;94.40;;;;;;5038654;28;21125;-86
2020/12/12 10:57:22;;;;;;;52.63;29.58;;;4.90;94.50;;;;;;5050632;28;20037;-85
2020/12/12 10:59:48;;;;;;;54.22;29.23;;;4.90;94.00;;;;;;5058283;28;20562;-86
2020/12/12 11:02:14;;;;;;;46.60;28.23;;;5.00;94.20;;;;;;5060282;28;20033;-89
2020/12/12 11:04:40;;;;;;;51.15;28.77;;;5.00;94.00;;;;;;5054497;28;20072;-88
2020/12/12 11:07:07;;;;;;;52.63;29.48;;;5.00;93.90;;;;;;5072067;28;20048;-87
2020/12/12 11:09:52;;;;;;;47.55;28.05;;;4.90;93.90;;;;;;5045886;28;20136;-87
2020/12/12 11:12:18;;;;;;;51.70;28.77;;;4.90;94.00;;;;;;5045293;28;20124;-86
2020/12/12 11:14:48;;;;;;;47.65;28.33;;;5.00;94.10;;;;;;5034843;28;20086;-87
2020/12/12 11:17:14;;;;;;;44.15;27.33;;;5.00;94.30;;;;;;5067258;28;20041;-88
2020/12/12 11:19:40;;;;;;;47.90;28.65;;;5.00;94.00;;;;;;5046051;28;20497;-87
2020/12/12 11:22:06;;;;;;;52.25;31.45;;;5.00;94.10;;;;;;5058500;28;20128;-86
2020/12/12 11:24:32;;;;;;;51.08;30.67;;;4.90;93.90;;;;;;5032323;28;20036;-86
2020/12/12 11:26:58;;;;;;;50.75;29.95;;;4.90;94.10;;;;;;5042191;28;20543;-86
2020/12/12 11:29:44;;;;;;;53.85;30.08;;;5.00;94.20;;;;;;5035789;28;20053;-86
2020/12/12 11:32:12;;;;;;;46.95;28.48;;;5.10;94.20;;;;;;5050864;28;20048;-86
2020/12/12 11:34:44;;;;;;;45.38;26.38;;;5.00;93.90;;;;;;5039435;28;20047;-86
2020/12/12 11:48:12;;;;;;;49.97;26.00;;;5.10;94.20;;;;;;5033902;28;20141;-86
2020/12/12 11:50:58;;;;;;;45.50;27.50;;;5.30;94.30;;;;;;5032435;28;20041;-85
2020/12/12 11:53:45;;;;;;;49.78;28.15;;;5.20;93.90;;;;;;5034066;28;20077;-88
2020/12/12 11:56:10;;;;;;;49.58;28.23;;;5.20;93.90;;;;;;5050906;28;20068;-87
2020/12/12 11:58:36;;;;;;;46.05;28.35;;;5.20;94.00;;;;;;5031810;28;20064;-88
2020/12/12 12:01:24;;;;;;;44.30;25.13;;;5.20;93.80;;;;;;5036986;28;20049;-86
2020/12/12 12:03:51;;;;;;;47.15;26.70;;;5.20;94.10;;;;;;5053974;28;20048;-86
2020/12/12 12:06:18;;;;;;;45.42;26.25;;;5.20;94.20;;;;;;5044623;28;20068;-88
2020/12/12 12:09:00;;;;;;;48.00;27.27;;;5.20;94.40;;;;;;5022518;28;20051;-87
2020/12/12 12:11:31;;;;;;;45.65;26.75;;;5.20;94.10;;;;;;5030082;28;20037;-86
2020/12/12 12:14:05;;;;;;;45.63;26.48;;;5.30;94.10;;;;;;5045397;28;20037;-87
2020/12/12 12:16:41;;;;;;;47.60;26.85;;;5.20;94.00;;;;;;5049284;28;20123;-87
2020/12/12 12:19:15;;;;;;;45.80;26.77;;;5.20;94.10;;;;;;5050244;28;20036;-89
2020/12/12 12:21:45;;;;;;;49.40;28.40;;;5.30;94.40;;;;;;5067040;28;20671;-88
2020/12/12 12:24:15;;;;;;;47.45;26.58;;;5.30;93.90;;;;;;5052186;28;20048;-88
2020/12/12 12:26:41;;;;;;;48.78;26.27;;;5.30;94.10;;;;;;5034031;28;20075;-88
2020/12/12 12:29:11;;;;;;;54.90;28.80;;;5.20;94.00;;;;;;5051016;28;20195;-88
2020/12/12 12:31:41;;;;;;;49.92;28.27;;;5.20;93.90;;;;;;5050531;28;20401;-88
2020/12/12 12:34:07;;;;;;;50.55;28.85;;;5.20;94.10;;;;;;5051670;28;20530;-88
2020/12/12 12:36:34;;;;;;;50.30;28.15;;;5.20;94.20;;;;;;5035294;28;20447;-88
2020/12/12 12:39:01;;;;;;;52.92;28.50;;;5.20;94.00;;;;;;5037627;28;20061;-89
2020/12/12 12:41:29;;;;;;;53.95;27.58;;;5.30;94.30;;;;;;5005129;28;20140;-88
2020/12/12 12:44:00;;;;;;;52.00;28.48;;;5.30;94.30;;;;;;5013600;28;20049;-88
2020/12/12 12:46:49;;;;;;;51.05;28.75;;;5.30;94.30;;;;;;5016759;28;20053;-86
2020/12/12 12:49:15;;;;;;;52.63;29.88;;;5.30;94.10;;;;;;5013897;28;20487;-87
2020/12/12 12:51:41;;;;;;;53.60;28.77;;;5.30;94.00;;;;;;4994638;28;20050;-86
2020/12/12 12:54:27;;;;;;;59.85;30.52;;;5.30;94.00;;;;;;4989158;28;20402;-88
2020/12/12 12:57:12;;;;;;;63.20;31.38;;;5.20;94.10;;;;;;5007578;28;20045;-87
2020/12/12 12:59:38;;;;;;;55.10;29.00;;;5.30;94.30;;;;;;5018441;28;20496;-86
2020/12/12 13:02:04;;;;;;;56.72;31.48;;;5.30;94.20;;;;;;5032121;28;20072;-87
2020/12/12 13:04:30;;;;;;;57.90;30.35;;;5.30;94.20;;;;;;5033433;28;20539;-86
2020/12/12 13:06:55;;;;;;;61.30;31.42;;;5.30;94.10;;;;;;4984255;28;20111;-87
2020/12/12 13:09:21;;;;;;;56.20;30.55;;;5.30;94.20;;;;;;5026099;28;20034;-85
2020/12/12 13:12:07;;;;;;;56.80;30.77;;;5.30;94.20;;;;;;5012422;28;20654;-86
2020/12/12 13:14:33;;;;;;;57.03;32.00;;;5.30;94.40;;;;;;5029446;28;20046;-86
2020/12/12 13:16:58;;;;;;;55.83;32.20;;;5.40;94.40;;;;;;4997511;28;20386;-86